sensor_id;sensor_type;location;lat;lon;timestamp;P1;durP1;ratioP1;P2;durP2;ratioP2
44228;SDS011;29904;51.058;5.378;2023-01-01T00:00:22;5.25;;;1.00;;
44228;SDS011;29904;51.058;5.378;2023-01-01T00:02:47;3.22;;;1.13;;
44228;SDS011;29904;51.058;5.378;2023-01-01T00:05:13;5.03;;;1.20;;
44228;SDS011;29904;51.058;5.378;2023-01-01T00:07:41;6.70;;;1.40;;
44228;SDS011;29904;51.058;5.378;2023-01-01T00:10:08;3.30;;;1.20;;
44228;SDS011;29904;51.058;5.378;2023-01-01T00:12:53;5.18;;;1.30;;
44228;SDS011;29904;51.058;5.378;2023-01-01T00:15:22;3.97;;;1.30;;
44228;SDS011;29904;51.058;5.378;2023-01-01T00:17:48;4.40;;;1.15;;
44228;SDS011;29904;51.058;5.378;2023-01-01T00:20:14;5.57;;;1.08;;
44228;SDS011;29904;51.058;5.378;2023-01-01T00:22:40;3.75;;;1.33;;
44228;SDS011;29904;51.058;5.378;2023-01-01T00:25:05;5.30;;;1.40;;
44228;SDS011;29904;51.058;5.378;2023-01-01T00:27:32;4.03;;;1.38;;
44228;SDS011;29904;51.058;5.378;2023-01-01T00:29:58;6.30;;;1.50;;
44228;SDS011;29904;51.058;5.378;2023-01-01T00:32:23;6.03;;;1.47;;
44228;SDS011;29904;51.058;5.378;2023-01-01T00:34:49;5.97;;;1.40;;
44228;SDS011;29904;51.058;5.378;2023-01-01T00:37:15;7.57;;;1.63;;
44228;SDS011;29904;51.058;5.378;2023-01-01T00:39:42;5.07;;;1.40;;
44228;SDS011;29904;51.058;5.378;2023-01-01T00:42:08;5.93;;;1.73;;
44228;SDS011;29904;51.058;5.378;2023-01-01T00:44:34;6.33;;;1.20;;
44228;SDS011;29904;51.058;5.378;2023-01-01T00:46:59;6.03;;;1.27;;
44228;SDS011;29904;51.058;5.378;2023-01-01T00:49:28;6.97;;;1.42;;
44228;SDS011;29904;51.058;5.378;2023-01-01T00:51:54;5.17;;;1.33;;
44228;SDS011;29904;51.058;5.378;2023-01-01T00:54:20;3.53;;;1.30;;
44228;SDS011;29904;51.058;5.378;2023-01-01T00:56:45;3.80;;;1.30;;
44228;SDS011;29904;51.058;5.378;2023-01-01T00:59:11;3.92;;;1.20;;
44228;SDS011;29904;51.058;5.378;2023-01-01T01:01:37;4.30;;;1.17;;
44228;SDS011;29904;51.058;5.378;2023-01-01T01:04:04;4.10;;;1.30;;
44228;SDS011;29904;51.058;5.378;2023-01-01T01:06:30;6.28;;;1.30;;
44228;SDS011;29904;51.058;5.378;2023-01-01T01:08:56;5.50;;;1.20;;
44228;SDS011;29904;51.058;5.378;2023-01-01T01:11:23;4.03;;;1.52;;
44228;SDS011;29904;51.058;5.378;2023-01-01T01:13:51;4.65;;;1.38;;
44228;SDS011;29904;51.058;5.378;2023-01-01T01:18:54;4.45;;;1.20;;
44228;SDS011;29904;51.058;5.378;2023-01-01T01:21:22;3.95;;;1.10;;
44228;SDS011;29904;51.058;5.378;2023-01-01T01:23:49;4.10;;;1.10;;
44228;SDS011;29904;51.058;5.378;2023-01-01T01:26:20;4.90;;;1.40;;
44228;SDS011;29904;51.058;5.378;2023-01-01T01:28:48;2.50;;;1.10;;
44228;SDS011;29904;51.058;5.378;2023-01-01T01:31:20;2.10;;;0.90;;
44228;SDS011;29904;51.058;5.378;2023-01-01T01:33:47;4.25;;;1.23;;
44228;SDS011;29904;51.058;5.378;2023-01-01T01:36:14;3.88;;;1.10;;
44228;SDS011;29904;51.058;5.378;2023-01-01T01:38:41;3.65;;;1.00;;
44228;SDS011;29904;51.058;5.378;2023-01-01T01:41:07;4.87;;;1.00;;
44228;SDS011;29904;51.058;5.378;2023-01-01T01:46:03;4.38;;;1.10;;
44228;SDS011;29904;51.058;5.378;2023-01-01T01:48:46;5.22;;;0.98;;
44228;SDS011;29904;51.058;5.378;2023-01-01T01:51:14;4.32;;;1.10;;
44228;SDS011;29904;51.058;5.378;2023-01-01T01:53:45;3.13;;;1.00;;
44228;SDS011;29904;51.058;5.378;2023-01-01T01:56:14;4.90;;;1.30;;
44228;SDS011;29904;51.058;5.378;2023-01-01T01:58:47;3.67;;;1.10;;
44228;SDS011;29904;51.058;5.378;2023-01-01T02:01:14;6.50;;;1.13;;
44228;SDS011;29904;51.058;5.378;2023-01-01T02:03:41;4.75;;;1.10;;
44228;SDS011;29904;51.058;5.378;2023-01-01T02:06:13;5.75;;;1.35;;
44228;SDS011;29904;51.058;5.378;2023-01-01T02:08:42;4.57;;;1.00;;
44228;SDS011;29904;51.058;5.378;2023-01-01T02:11:07;4.75;;;1.17;;
44228;SDS011;29904;51.058;5.378;2023-01-01T02:13:33;5.13;;;1.20;;
44228;SDS011;29904;51.058;5.378;2023-01-01T02:18:38;3.85;;;1.00;;
44228;SDS011;29904;51.058;5.378;2023-01-01T02:21:11;7.70;;;1.23;;
44228;SDS011;29904;51.058;5.378;2023-01-01T02:31:48;4.03;;;1.20;;
44228;SDS011;29904;51.058;5.378;2023-01-01T02:34:37;5.10;;;1.10;;
44228;SDS011;29904;51.058;5.378;2023-01-01T02:37:11;3.50;;;1.00;;
44228;SDS011;29904;51.058;5.378;2023-01-01T02:39:41;4.72;;;1.10;;
44228;SDS011;29904;51.058;5.378;2023-01-01T02:42:11;3.72;;;1.10;;
44228;SDS011;29904;51.058;5.378;2023-01-01T02:44:39;3.75;;;1.00;;
44228;SDS011;29904;51.058;5.378;2023-01-01T02:47:15;3.33;;;1.20;;
44228;SDS011;29904;51.058;5.378;2023-01-01T02:49:47;3.38;;;0.90;;
44228;SDS011;29904;51.058;5.378;2023-01-01T02:52:40;3.20;;;0.93;;
44228;SDS011;29904;51.058;5.378;2023-01-01T02:55:43;5.43;;;1.20;;
44228;SDS011;29904;51.058;5.378;2023-01-01T03:04:34;5.03;;;0.98;;
44228;SDS011;29904;51.058;5.378;2023-01-01T03:07:22;2.87;;;0.90;;
44228;SDS011;29904;51.058;5.378;2023-01-01T03:10:12;3.28;;;1.02;;
44228;SDS011;29904;51.058;5.378;2023-01-01T03:15:42;3.95;;;1.00;;
44228;SDS011;29904;51.058;5.378;2023-01-01T03:18:31;3.25;;;1.00;;
44228;SDS011;29904;51.058;5.378;2023-01-01T03:21:03;3.13;;;1.00;;
44228;SDS011;29904;51.058;5.378;2023-01-01T03:23:37;3.17;;;0.90;;
44228;SDS011;29904;51.058;5.378;2023-01-01T03:26:08;3.90;;;1.08;;
44228;SDS011;29904;51.058;5.378;2023-01-01T03:28:42;4.20;;;1.03;;
44228;SDS011;29904;51.058;5.378;2023-01-01T03:31:15;3.08;;;1.00;;
44228;SDS011;29904;51.058;5.378;2023-01-01T03:33:46;6.68;;;1.50;;
44228;SDS011;29904;51.058;5.378;2023-01-01T03:36:23;4.83;;;1.10;;
44228;SDS011;29904;51.058;5.378;2023-01-01T03:38:55;3.47;;;1.10;;
44228;SDS011;29904;51.058;5.378;2023-01-01T03:41:28;5.70;;;1.00;;
44228;SDS011;29904;51.058;5.378;2023-01-01T03:47:09;3.50;;;1.10;;
44228;SDS011;29904;51.058;5.378;2023-01-01T03:49:35;3.33;;;1.03;;
44228;SDS011;29904;51.058;5.378;2023-01-01T04:00:34;5.07;;;1.00;;
44228;SDS011;29904;51.058;5.378;2023-01-01T04:03:05;2.95;;;1.00;;
44228;SDS011;29904;51.058;5.378;2023-01-01T04:05:38;3.35;;;0.98;;
44228;SDS011;29904;51.058;5.378;2023-01-01T04:08:05;5.75;;;1.15;;
44228;SDS011;29904;51.058;5.378;2023-01-01T04:10:33;5.90;;;1.17;;
44228;SDS011;29904;51.058;5.378;2023-01-01T04:13:02;4.43;;;1.02;;
44228;SDS011;29904;51.058;5.378;2023-01-01T04:15:30;5.03;;;1.10;;
44228;SDS011;29904;51.058;5.378;2023-01-01T04:17:56;3.30;;;1.15;;
44228;SDS011;29904;51.058;5.378;2023-01-01T04:20:22;3.43;;;1.10;;
44228;SDS011;29904;51.058;5.378;2023-01-01T04:22:49;3.15;;;1.30;;
44228;SDS011;29904;51.058;5.378;2023-01-01T04:25:15;6.53;;;1.20;;
44228;SDS011;29904;51.058;5.378;2023-01-01T04:27:43;4.78;;;1.20;;
44228;SDS011;29904;51.058;5.378;2023-01-01T04:30:10;3.17;;;1.08;;
44228;SDS011;29904;51.058;5.378;2023-01-01T04:32:37;5.45;;;1.30;;
44228;SDS011;29904;51.058;5.378;2023-01-01T04:35:04;3.50;;;1.20;;
44228;SDS011;29904;51.058;5.378;2023-01-01T04:37:31;2.90;;;1.10;;
44228;SDS011;29904;51.058;5.378;2023-01-01T04:39:58;3.03;;;1.00;;
44228;SDS011;29904;51.058;5.378;2023-01-01T04:42:24;5.47;;;1.10;;
44228;SDS011;29904;51.058;5.378;2023-01-01T04:44:54;2.97;;;1.13;;
44228;SDS011;29904;51.058;5.378;2023-01-01T04:47:19;4.72;;;1.10;;
44228;SDS011;29904;51.058;5.378;2023-01-01T04:49:46;3.65;;;1.20;;
44228;SDS011;29904;51.058;5.378;2023-01-01T04:52:13;4.75;;;1.05;;
44228;SDS011;29904;51.058;5.378;2023-01-01T04:54:39;5.30;;;1.33;;
44228;SDS011;29904;51.058;5.378;2023-01-01T04:57:05;4.95;;;1.15;;
44228;SDS011;29904;51.058;5.378;2023-01-01T04:59:31;4.40;;;1.40;;
44228;SDS011;29904;51.058;5.378;2023-01-01T05:01:56;4.60;;;1.20;;
44228;SDS011;29904;51.058;5.378;2023-01-01T05:04:22;4.38;;;1.10;;
44228;SDS011;29904;51.058;5.378;2023-01-01T05:06:48;4.60;;;1.15;;
44228;SDS011;29904;51.058;5.378;2023-01-01T05:09:14;3.85;;;1.10;;
44228;SDS011;29904;51.058;5.378;2023-01-01T05:11:40;3.10;;;1.10;;
44228;SDS011;29904;51.058;5.378;2023-01-01T05:14:07;1.95;;;0.90;;
44228;SDS011;29904;51.058;5.378;2023-01-01T05:16:34;5.03;;;1.10;;
44228;SDS011;29904;51.058;5.378;2023-01-01T05:19:01;3.22;;;1.20;;
44228;SDS011;29904;51.058;5.378;2023-01-01T05:21:28;3.97;;;1.00;;
44228;SDS011;29904;51.058;5.378;2023-01-01T05:23:57;5.68;;;1.33;;
44228;SDS011;29904;51.058;5.378;2023-01-01T05:26:27;4.15;;;1.40;;
44228;SDS011;29904;51.058;5.378;2023-01-01T05:28:56;3.60;;;1.13;;
44228;SDS011;29904;51.058;5.378;2023-01-01T05:31:25;4.05;;;1.27;;
44228;SDS011;29904;51.058;5.378;2023-01-01T05:33:53;5.30;;;1.20;;
44228;SDS011;29904;51.058;5.378;2023-01-01T05:36:22;4.25;;;1.10;;
44228;SDS011;29904;51.058;5.378;2023-01-01T05:38:50;3.30;;;1.20;;
44228;SDS011;29904;51.058;5.378;2023-01-01T05:41:17;3.17;;;1.10;;
44228;SDS011;29904;51.058;5.378;2023-01-01T05:43:43;4.72;;;1.50;;
44228;SDS011;29904;51.058;5.378;2023-01-01T05:46:17;4.82;;;1.10;;
44228;SDS011;29904;51.058;5.378;2023-01-01T05:48:45;5.72;;;1.05;;
44228;SDS011;29904;51.058;5.378;2023-01-01T05:51:16;3.55;;;1.20;;
44228;SDS011;29904;51.058;5.378;2023-01-01T05:53:43;6.45;;;1.40;;
44228;SDS011;29904;51.058;5.378;2023-01-01T05:56:10;6.97;;;1.20;;
44228;SDS011;29904;51.058;5.378;2023-01-01T05:58:36;5.00;;;1.30;;
44228;SDS011;29904;51.058;5.378;2023-01-01T06:01:05;6.40;;;1.35;;
44228;SDS011;29904;51.058;5.378;2023-01-01T06:03:37;3.13;;;1.00;;
44228;SDS011;29904;51.058;5.378;2023-01-01T06:06:04;3.35;;;1.13;;
44228;SDS011;29904;51.058;5.378;2023-01-01T06:08:32;5.10;;;1.20;;
44228;SDS011;29904;51.058;5.378;2023-01-01T06:11:02;5.50;;;1.20;;
44228;SDS011;29904;51.058;5.378;2023-01-01T06:13:30;4.72;;;1.27;;
44228;SDS011;29904;51.058;5.378;2023-01-01T06:15:56;3.05;;;1.10;;
44228;SDS011;29904;51.058;5.378;2023-01-01T06:18:23;3.10;;;1.17;;
44228;SDS011;29904;51.058;5.378;2023-01-01T06:20:51;4.90;;;1.40;;
44228;SDS011;29904;51.058;5.378;2023-01-01T06:23:17;5.07;;;1.10;;
44228;SDS011;29904;51.058;5.378;2023-01-01T06:25:43;6.07;;;1.30;;
44228;SDS011;29904;51.058;5.378;2023-01-01T06:28:08;5.38;;;1.40;;
44228;SDS011;29904;51.058;5.378;2023-01-01T06:30:35;5.85;;;1.30;;
44228;SDS011;29904;51.058;5.378;2023-01-01T06:33:01;4.65;;;1.65;;
44228;SDS011;29904;51.058;5.378;2023-01-01T06:35:28;6.45;;;1.52;;
44228;SDS011;29904;51.058;5.378;2023-01-01T06:37:58;4.25;;;1.42;;
44228;SDS011;29904;51.058;5.378;2023-01-01T06:40:24;4.68;;;1.23;;
44228;SDS011;29904;51.058;5.378;2023-01-01T06:42:49;5.53;;;1.40;;
44228;SDS011;29904;51.058;5.378;2023-01-01T06:45:15;4.55;;;1.38;;
44228;SDS011;29904;51.058;5.378;2023-01-01T06:47:41;6.07;;;1.30;;
44228;SDS011;29904;51.058;5.378;2023-01-01T06:50:07;6.27;;;1.40;;
44228;SDS011;29904;51.058;5.378;2023-01-01T06:52:33;5.60;;;1.43;;
44228;SDS011;29904;51.058;5.378;2023-01-01T06:54:58;4.23;;;1.30;;
44228;SDS011;29904;51.058;5.378;2023-01-01T06:57:24;4.70;;;1.48;;
44228;SDS011;29904;51.058;5.378;2023-01-01T06:59:50;8.18;;;1.60;;
44228;SDS011;29904;51.058;5.378;2023-01-01T07:02:16;5.60;;;1.60;;
44228;SDS011;29904;51.058;5.378;2023-01-01T07:04:41;5.57;;;1.42;;
44228;SDS011;29904;51.058;5.378;2023-01-01T07:07:07;6.17;;;1.40;;
44228;SDS011;29904;51.058;5.378;2023-01-01T07:09:33;5.53;;;1.50;;
44228;SDS011;29904;51.058;5.378;2023-01-01T07:11:59;5.40;;;1.60;;
44228;SDS011;29904;51.058;5.378;2023-01-01T07:14:24;2.30;;;1.00;;
44228;SDS011;29904;51.058;5.378;2023-01-01T07:16:50;5.68;;;1.70;;
44228;SDS011;29904;51.058;5.378;2023-01-01T07:19:16;5.37;;;1.40;;
44228;SDS011;29904;51.058;5.378;2023-01-01T07:21:51;3.37;;;1.07;;
44228;SDS011;29904;51.058;5.378;2023-01-01T07:24:19;3.45;;;1.42;;
44228;SDS011;29904;51.058;5.378;2023-01-01T07:26:46;3.90;;;1.42;;
44228;SDS011;29904;51.058;5.378;2023-01-01T07:29:13;5.32;;;1.60;;
44228;SDS011;29904;51.058;5.378;2023-01-01T07:31:39;5.85;;;1.35;;
44228;SDS011;29904;51.058;5.378;2023-01-01T07:34:08;7.20;;;1.60;;
44228;SDS011;29904;51.058;5.378;2023-01-01T07:36:36;4.90;;;1.42;;
44228;SDS011;29904;51.058;5.378;2023-01-01T07:39:02;3.85;;;1.45;;
44228;SDS011;29904;51.058;5.378;2023-01-01T07:41:28;6.03;;;1.45;;
44228;SDS011;29904;51.058;5.378;2023-01-01T07:43:54;6.50;;;1.70;;
44228;SDS011;29904;51.058;5.378;2023-01-01T07:46:19;6.93;;;1.50;;
44228;SDS011;29904;51.058;5.378;2023-01-01T07:48:45;4.77;;;1.63;;
44228;SDS011;29904;51.058;5.378;2023-01-01T07:51:11;4.40;;;1.33;;
44228;SDS011;29904;51.058;5.378;2023-01-01T07:53:39;5.68;;;1.63;;
44228;SDS011;29904;51.058;5.378;2023-01-01T07:56:04;6.47;;;1.77;;
44228;SDS011;29904;51.058;5.378;2023-01-01T07:58:31;8.40;;;2.10;;
44228;SDS011;29904;51.058;5.378;2023-01-01T08:00:57;6.18;;;1.45;;
44228;SDS011;29904;51.058;5.378;2023-01-01T08:03:22;5.38;;;1.35;;
44228;SDS011;29904;51.058;5.378;2023-01-01T08:05:48;4.30;;;1.35;;
44228;SDS011;29904;51.058;5.378;2023-01-01T08:08:14;6.30;;;1.50;;
44228;SDS011;29904;51.058;5.378;2023-01-01T08:10:39;5.82;;;1.50;;
44228;SDS011;29904;51.058;5.378;2023-01-01T08:13:05;5.13;;;1.50;;
44228;SDS011;29904;51.058;5.378;2023-01-01T08:15:32;7.93;;;1.70;;
44228;SDS011;29904;51.058;5.378;2023-01-01T08:17:59;5.70;;;1.58;;
44228;SDS011;29904;51.058;5.378;2023-01-01T08:20:26;4.15;;;1.38;;
44228;SDS011;29904;51.058;5.378;2023-01-01T08:22:54;5.05;;;1.65;;
44228;SDS011;29904;51.058;5.378;2023-01-01T08:25:21;6.05;;;1.70;;
44228;SDS011;29904;51.058;5.378;2023-01-01T08:27:46;5.60;;;1.40;;
44228;SDS011;29904;51.058;5.378;2023-01-01T08:30:13;4.68;;;1.50;;
44228;SDS011;29904;51.058;5.378;2023-01-01T08:32:39;5.32;;;1.65;;
44228;SDS011;29904;51.058;5.378;2023-01-01T08:35:06;6.68;;;1.85;;
44228;SDS011;29904;51.058;5.378;2023-01-01T08:37:33;3.75;;;1.48;;
44228;SDS011;29904;51.058;5.378;2023-01-01T08:39:59;4.60;;;1.50;;
44228;SDS011;29904;51.058;5.378;2023-01-01T08:42:25;4.65;;;1.30;;
44228;SDS011;29904;51.058;5.378;2023-01-01T08:44:52;6.55;;;1.48;;
44228;SDS011;29904;51.058;5.378;2023-01-01T08:47:19;6.83;;;1.50;;
44228;SDS011;29904;51.058;5.378;2023-01-01T08:49:46;7.15;;;1.50;;
44228;SDS011;29904;51.058;5.378;2023-01-01T08:52:12;5.03;;;1.45;;
44228;SDS011;29904;51.058;5.378;2023-01-01T08:54:38;6.67;;;1.43;;
44228;SDS011;29904;51.058;5.378;2023-01-01T08:57:04;7.53;;;1.97;;
44228;SDS011;29904;51.058;5.378;2023-01-01T08:59:30;6.00;;;1.73;;
44228;SDS011;29904;51.058;5.378;2023-01-01T09:01:56;3.30;;;1.30;;
44228;SDS011;29904;51.058;5.378;2023-01-01T09:04:21;5.50;;;1.50;;
44228;SDS011;29904;51.058;5.378;2023-01-01T09:06:47;5.27;;;1.50;;
44228;SDS011;29904;51.058;5.378;2023-01-01T09:09:13;7.10;;;1.90;;
44228;SDS011;29904;51.058;5.378;2023-01-01T09:11:38;6.68;;;1.58;;
44228;SDS011;29904;51.058;5.378;2023-01-01T09:14:04;6.00;;;1.70;;
44228;SDS011;29904;51.058;5.378;2023-01-01T09:16:29;5.20;;;1.60;;
44228;SDS011;29904;51.058;5.378;2023-01-01T09:18:55;4.95;;;1.70;;
44228;SDS011;29904;51.058;5.378;2023-01-01T09:21:21;6.95;;;1.85;;
44228;SDS011;29904;51.058;5.378;2023-01-01T09:23:47;7.30;;;1.67;;
44228;SDS011;29904;51.058;5.378;2023-01-01T09:26:12;6.00;;;1.50;;
44228;SDS011;29904;51.058;5.378;2023-01-01T09:28:38;5.35;;;1.58;;
44228;SDS011;29904;51.058;5.378;2023-01-01T09:31:04;5.30;;;1.77;;
44228;SDS011;29904;51.058;5.378;2023-01-01T09:33:31;5.72;;;1.63;;
44228;SDS011;29904;51.058;5.378;2023-01-01T09:36:10;7.30;;;1.70;;
44228;SDS011;29904;51.058;5.378;2023-01-01T09:38:37;7.75;;;1.63;;
44228;SDS011;29904;51.058;5.378;2023-01-01T09:41:10;7.28;;;2.60;;
44228;SDS011;29904;51.058;5.378;2023-01-01T09:46:15;5.63;;;2.00;;
44228;SDS011;29904;51.058;5.378;2023-01-01T09:48:44;4.68;;;1.80;;
44228;SDS011;29904;51.058;5.378;2023-01-01T09:51:27;5.55;;;2.10;;
44228;SDS011;29904;51.058;5.378;2023-01-01T09:54:00;5.53;;;2.00;;
44228;SDS011;29904;51.058;5.378;2023-01-01T09:56:32;5.83;;;1.70;;
44228;SDS011;29904;51.058;5.378;2023-01-01T09:59:00;4.78;;;1.70;;
44228;SDS011;29904;51.058;5.378;2023-01-01T10:15:36;4.18;;;1.48;;
44228;SDS011;29904;51.058;5.378;2023-01-01T10:18:12;5.45;;;1.70;;
44228;SDS011;29904;51.058;5.378;2023-01-01T10:20:45;7.82;;;1.98;;
44228;SDS011;29904;51.058;5.378;2023-01-01T10:23:19;4.72;;;1.58;;
44228;SDS011;29904;51.058;5.378;2023-01-01T10:25:49;6.30;;;1.52;;
44228;SDS011;29904;51.058;5.378;2023-01-01T10:28:20;6.00;;;1.40;;
44228;SDS011;29904;51.058;5.378;2023-01-01T10:30:56;5.93;;;1.40;;
44228;SDS011;29904;51.058;5.378;2023-01-01T10:33:50;7.95;;;1.73;;
44228;SDS011;29904;51.058;5.378;2023-01-01T10:36:16;5.50;;;1.63;;
44228;SDS011;29904;51.058;5.378;2023-01-01T10:38:43;7.20;;;1.73;;
44228;SDS011;29904;51.058;5.378;2023-01-01T10:41:11;6.63;;;1.48;;
44228;SDS011;29904;51.058;5.378;2023-01-01T10:43:37;4.38;;;1.50;;
44228;SDS011;29904;51.058;5.378;2023-01-01T10:46:04;7.28;;;1.70;;
44228;SDS011;29904;51.058;5.378;2023-01-01T10:48:33;7.00;;;1.70;;
44228;SDS011;29904;51.058;5.378;2023-01-01T10:51:04;5.13;;;1.67;;
44228;SDS011;29904;51.058;5.378;2023-01-01T10:53:35;9.52;;;2.08;;
44228;SDS011;29904;51.058;5.378;2023-01-01T10:56:14;6.07;;;1.50;;
44228;SDS011;29904;51.058;5.378;2023-01-01T11:01:22;3.92;;;1.40;;
44228;SDS011;29904;51.058;5.378;2023-01-01T11:06:32;8.23;;;2.20;;
44228;SDS011;29904;51.058;5.378;2023-01-01T11:09:19;7.63;;;1.50;;
44228;SDS011;29904;51.058;5.378;2023-01-01T11:11:47;7.78;;;1.90;;
44228;SDS011;29904;51.058;5.378;2023-01-01T11:14:31;6.75;;;1.83;;
44228;SDS011;29904;51.058;5.378;2023-01-01T11:17:02;7.75;;;1.60;;
44228;SDS011;29904;51.058;5.378;2023-01-01T11:19:31;6.47;;;1.40;;
44228;SDS011;29904;51.058;5.378;2023-01-01T11:22:00;6.38;;;1.70;;
44228;SDS011;29904;51.058;5.378;2023-01-01T11:24:28;5.25;;;1.33;;
44228;SDS011;29904;51.058;5.378;2023-01-01T11:29:47;5.95;;;1.63;;
44228;SDS011;29904;51.058;5.378;2023-01-01T11:32:35;4.63;;;1.30;;
44228;SDS011;29904;51.058;5.378;2023-01-01T11:35:04;5.78;;;1.73;;
44228;SDS011;29904;51.058;5.378;2023-01-01T11:37:39;3.95;;;1.58;;
44228;SDS011;29904;51.058;5.378;2023-01-01T11:40:14;6.93;;;1.75;;
44228;SDS011;29904;51.058;5.378;2023-01-01T11:42:46;6.07;;;1.83;;
44228;SDS011;29904;51.058;5.378;2023-01-01T11:45:19;6.43;;;1.60;;
44228;SDS011;29904;51.058;5.378;2023-01-01T11:47:52;6.63;;;1.57;;
44228;SDS011;29904;51.058;5.378;2023-01-01T11:50:24;6.97;;;1.75;;
44228;SDS011;29904;51.058;5.378;2023-01-01T11:52:53;5.15;;;1.60;;
44228;SDS011;29904;51.058;5.378;2023-01-01T11:58:05;6.05;;;1.63;;
44228;SDS011;29904;51.058;5.378;2023-01-01T12:00:59;6.93;;;1.90;;
44228;SDS011;29904;51.058;5.378;2023-01-01T12:03:38;4.68;;;1.52;;
44228;SDS011;29904;51.058;5.378;2023-01-01T12:08:50;6.00;;;1.35;;
44228;SDS011;29904;51.058;5.378;2023-01-01T12:11:40;4.68;;;1.60;;
44228;SDS011;29904;51.058;5.378;2023-01-01T12:14:21;5.90;;;1.75;;
44228;SDS011;29904;51.058;5.378;2023-01-01T12:17:19;5.97;;;1.55;;
44228;SDS011;29904;51.058;5.378;2023-01-01T12:22:40;6.50;;;1.73;;
44228;SDS011;29904;51.058;5.378;2023-01-01T12:25:09;6.67;;;1.73;;
44228;SDS011;29904;51.058;5.378;2023-01-01T12:30:37;5.28;;;1.73;;
44228;SDS011;29904;51.058;5.378;2023-01-01T12:33:06;5.47;;;1.85;;
44228;SDS011;29904;51.058;5.378;2023-01-01T12:35:46;5.47;;;1.42;;
44228;SDS011;29904;51.058;5.378;2023-01-01T12:41:42;5.80;;;1.70;;
44228;SDS011;29904;51.058;5.378;2023-01-01T12:44:49;7.05;;;1.73;;
44228;SDS011;29904;51.058;5.378;2023-01-01T12:50:20;5.73;;;1.40;;
44228;SDS011;29904;51.058;5.378;2023-01-01T12:53:20;8.13;;;1.40;;
44228;SDS011;29904;51.058;5.378;2023-01-01T12:56:04;5.33;;;1.50;;
44228;SDS011;29904;51.058;5.378;2023-01-01T13:01:29;6.55;;;1.85;;
44228;SDS011;29904;51.058;5.378;2023-01-01T13:04:01;6.03;;;1.45;;
44228;SDS011;29904;51.058;5.378;2023-01-01T13:07:01;6.97;;;1.63;;
44228;SDS011;29904;51.058;5.378;2023-01-01T13:09:34;5.97;;;1.55;;
44228;SDS011;29904;51.058;5.378;2023-01-01T13:12:13;8.05;;;1.85;;
44228;SDS011;29904;51.058;5.378;2023-01-01T13:14:41;6.35;;;1.50;;
44228;SDS011;29904;51.058;5.378;2023-01-01T13:17:21;4.65;;;1.50;;
44228;SDS011;29904;51.058;5.378;2023-01-01T13:20:00;5.13;;;1.50;;
44228;SDS011;29904;51.058;5.378;2023-01-01T13:22:41;7.15;;;1.35;;
44228;SDS011;29904;51.058;5.378;2023-01-01T13:38:46;5.80;;;1.30;;
44228;SDS011;29904;51.058;5.378;2023-01-01T13:43:53;5.57;;;1.75;;
44228;SDS011;29904;51.058;5.378;2023-01-01T14:00:23;4.72;;;1.30;;
44228;SDS011;29904;51.058;5.378;2023-01-01T14:03:11;5.00;;;1.38;;
44228;SDS011;29904;51.058;5.378;2023-01-01T14:05:44;6.37;;;1.50;;
44228;SDS011;29904;51.058;5.378;2023-01-01T14:08:33;5.53;;;1.33;;
44228;SDS011;29904;51.058;5.378;2023-01-01T14:11:00;4.13;;;1.35;;
44228;SDS011;29904;51.058;5.378;2023-01-01T14:13:41;6.35;;;1.42;;
44228;SDS011;29904;51.058;5.378;2023-01-01T14:16:08;6.30;;;1.50;;
44228;SDS011;29904;51.058;5.378;2023-01-01T14:21:21;4.72;;;1.33;;
44228;SDS011;29904;51.058;5.378;2023-01-01T14:23:54;8.05;;;1.40;;
44228;SDS011;29904;51.058;5.378;2023-01-01T14:26:23;6.90;;;1.60;;
44228;SDS011;29904;51.058;5.378;2023-01-01T14:28:57;6.00;;;1.25;;
44228;SDS011;29904;51.058;5.378;2023-01-01T14:31:29;6.57;;;1.52;;
44228;SDS011;29904;51.058;5.378;2023-01-01T14:33:58;7.13;;;1.40;;
44228;SDS011;29904;51.058;5.378;2023-01-01T14:36:30;4.70;;;1.20;;
44228;SDS011;29904;51.058;5.378;2023-01-01T14:38:58;5.45;;;1.30;;
44228;SDS011;29904;51.058;5.378;2023-01-01T14:41:33;5.53;;;1.30;;
44228;SDS011;29904;51.058;5.378;2023-01-01T14:46:38;3.72;;;1.35;;
44228;SDS011;29904;51.058;5.378;2023-01-01T14:52:06;6.20;;;1.25;;
44228;SDS011;29904;51.058;5.378;2023-01-01T14:54:43;4.40;;;1.00;;
44228;SDS011;29904;51.058;5.378;2023-01-01T14:57:12;4.18;;;1.20;;
44228;SDS011;29904;51.058;5.378;2023-01-01T14:59:48;5.10;;;1.30;;
44228;SDS011;29904;51.058;5.378;2023-01-01T15:02:20;3.83;;;1.20;;
44228;SDS011;29904;51.058;5.378;2023-01-01T15:04:48;5.10;;;1.50;;
44228;SDS011;29904;51.058;5.378;2023-01-01T15:07:21;5.30;;;1.30;;
44228;SDS011;29904;51.058;5.378;2023-01-01T15:09:49;4.50;;;1.33;;
44228;SDS011;29904;51.058;5.378;2023-01-01T15:12:18;8.18;;;1.30;;
44228;SDS011;29904;51.058;5.378;2023-01-01T15:14:45;6.00;;;1.30;;
44228;SDS011;29904;51.058;5.378;2023-01-01T15:17:14;5.50;;;1.30;;
44228;SDS011;29904;51.058;5.378;2023-01-01T15:22:39;4.95;;;1.48;;
44228;SDS011;29904;51.058;5.378;2023-01-01T15:25:09;8.57;;;1.73;;
44228;SDS011;29904;51.058;5.378;2023-01-01T15:27:42;6.50;;;1.50;;
44228;SDS011;29904;51.058;5.378;2023-01-01T15:30:31;5.20;;;1.35;;
44228;SDS011;29904;51.058;5.378;2023-01-01T15:33:05;5.18;;;1.20;;
44228;SDS011;29904;51.058;5.378;2023-01-01T15:35:33;4.63;;;1.08;;
44228;SDS011;29904;51.058;5.378;2023-01-01T15:40:58;5.97;;;1.37;;
44228;SDS011;29904;51.058;5.378;2023-01-01T15:43:25;4.68;;;1.20;;
44228;SDS011;29904;51.058;5.378;2023-01-01T15:45:57;4.47;;;1.10;;
44228;SDS011;29904;51.058;5.378;2023-01-01T15:48:29;4.53;;;1.30;;
44228;SDS011;29904;51.058;5.378;2023-01-01T15:56:26;5.28;;;1.23;;
44228;SDS011;29904;51.058;5.378;2023-01-01T16:01:33;4.55;;;1.23;;
44228;SDS011;29904;51.058;5.378;2023-01-01T16:04:06;5.40;;;1.30;;
44228;SDS011;29904;51.058;5.378;2023-01-01T16:06:51;4.70;;;1.10;;
44228;SDS011;29904;51.058;5.378;2023-01-01T16:09:19;4.50;;;1.30;;
44228;SDS011;29904;51.058;5.378;2023-01-01T16:11:55;3.38;;;0.95;;
44228;SDS011;29904;51.058;5.378;2023-01-01T16:14:23;5.05;;;1.20;;
44228;SDS011;29904;51.058;5.378;2023-01-01T16:16:50;5.23;;;1.17;;
44228;SDS011;29904;51.058;5.378;2023-01-01T16:19:24;4.03;;;1.30;;
44228;SDS011;29904;51.058;5.378;2023-01-01T16:21:51;3.97;;;1.13;;
44228;SDS011;29904;51.058;5.378;2023-01-01T16:24:17;5.03;;;1.30;;
44228;SDS011;29904;51.058;5.378;2023-01-01T16:26:44;4.25;;;1.20;;
44228;SDS011;29904;51.058;5.378;2023-01-01T16:29:11;4.97;;;1.27;;
44228;SDS011;29904;51.058;5.378;2023-01-01T16:31:37;4.75;;;1.40;;
44228;SDS011;29904;51.058;5.378;2023-01-01T16:34:03;3.17;;;1.05;;
44228;SDS011;29904;51.058;5.378;2023-01-01T16:36:30;5.53;;;1.33;;
44228;SDS011;29904;51.058;5.378;2023-01-01T16:38:56;5.82;;;1.27;;
44228;SDS011;29904;51.058;5.378;2023-01-01T16:41:22;4.38;;;1.45;;
44228;SDS011;29904;51.058;5.378;2023-01-01T16:43:49;5.43;;;1.30;;
44228;SDS011;29904;51.058;5.378;2023-01-01T16:46:17;4.15;;;1.30;;
44228;SDS011;29904;51.058;5.378;2023-01-01T16:48:43;6.80;;;1.33;;
44228;SDS011;29904;51.058;5.378;2023-01-01T16:51:30;4.97;;;1.40;;
44228;SDS011;29904;51.058;5.378;2023-01-01T16:53:55;4.10;;;1.17;;
44228;SDS011;29904;51.058;5.378;2023-01-01T16:56:22;4.18;;;1.30;;
44228;SDS011;29904;51.058;5.378;2023-01-01T16:58:48;5.15;;;1.23;;
44228;SDS011;29904;51.058;5.378;2023-01-01T17:01:14;3.90;;;1.40;;
44228;SDS011;29904;51.058;5.378;2023-01-01T17:03:39;5.30;;;2.95;;
44228;SDS011;29904;51.058;5.378;2023-01-01T17:06:06;4.90;;;2.00;;
44228;SDS011;29904;51.058;5.378;2023-01-01T17:08:34;4.43;;;1.40;;
44228;SDS011;29904;51.058;5.378;2023-01-01T17:11:01;3.20;;;1.45;;
44228;SDS011;29904;51.058;5.378;2023-01-01T17:13:32;4.93;;;1.58;;
44228;SDS011;29904;51.058;5.378;2023-01-01T17:15:59;5.05;;;1.55;;
44228;SDS011;29904;51.058;5.378;2023-01-01T17:18:25;4.63;;;1.73;;